createdAt,value
2022-12-31T00:01:23.874Z,12.26
2022-12-31T00:03:52.546Z,10.89
2022-12-31T00:06:27.076Z,9.89
2022-12-31T00:08:57.312Z,9.16
2022-12-31T00:11:27.130Z,8.70
2022-12-31T00:13:56.226Z,10.23
2022-12-31T00:16:27.492Z,12.71
2022-12-31T00:18:59.449Z,12.18
2022-12-31T00:21:30.499Z,10.85
2022-12-31T00:23:58.759Z,9.87
2022-12-31T00:26:30.043Z,9.22
2022-12-31T00:29:00.047Z,8.70
2022-12-31T00:31:33.809Z,9.16
2022-12-31T00:34:02.383Z,12.15
2022-12-31T00:36:36.390Z,13.04
2022-12-31T00:39:06.768Z,11.73
2022-12-31T00:41:35.121Z,10.58
2022-12-31T00:44:03.320Z,9.81
2022-12-31T00:46:32.086Z,9.22
2022-12-31T00:49:00.199Z,8.73
2022-12-31T00:51:28.703Z,9.03
2022-12-31T00:53:57.598Z,11.82
2022-12-31T00:56:28.463Z,13.09
2022-12-31T00:58:57.629Z,11.86
2022-12-31T01:01:27.205Z,10.67
2022-12-31T01:03:59.922Z,9.84
2022-12-31T01:06:28.060Z,9.23
2022-12-31T01:08:56.123Z,8.73
2022-12-31T01:11:24.719Z,8.94
2022-12-31T01:14:02.231Z,11.65
2022-12-31T01:16:30.209Z,13.17
2022-12-31T01:19:00.540Z,11.96
2022-12-31T01:21:29.389Z,10.64
2022-12-31T01:23:59.228Z,9.71
2022-12-31T01:26:28.029Z,9.04
2022-12-31T01:28:56.832Z,8.54
2022-12-31T01:31:26.021Z,8.89
2022-12-31T01:33:54.709Z,11.67
2022-12-31T01:36:26.633Z,12.76
2022-12-31T01:38:57.501Z,11.49
2022-12-31T01:41:31.381Z,10.32
2022-12-31T01:44:24.420Z,9.51
2022-12-31T01:46:56.738Z,8.86
2022-12-31T01:49:45.595Z,8.43
2022-12-31T01:52:17.448Z,9.11
2022-12-31T01:54:49.814Z,12.14
2022-12-31T01:57:18.403Z,12.69
2022-12-31T01:59:46.869Z,11.40
2022-12-31T02:02:16.068Z,10.29
2022-12-31T02:04:44.262Z,9.52
2022-12-31T02:07:12.908Z,8.94
2022-12-31T02:09:42.438Z,8.48
2022-12-31T02:12:11.093Z,8.75
2022-12-31T02:14:50.833Z,11.60
2022-12-31T02:17:25.082Z,12.89
2022-12-31T02:20:05.486Z,11.58
2022-12-31T02:23:10.998Z,10.31
2022-12-31T02:25:39.026Z,9.36
2022-12-31T02:28:28.891Z,8.83
2022-12-31T02:31:07.605Z,8.38
2022-12-31T02:33:46.624Z,8.83
2022-12-31T02:36:28.209Z,11.93
2022-12-31T02:38:56.761Z,12.67
2022-12-31T02:41:43.164Z,11.36
2022-12-31T02:44:33.320Z,10.13
2022-12-31T02:47:10.724Z,9.30
2022-12-31T02:49:57.575Z,8.75
2022-12-31T02:52:47.056Z,8.30
2022-12-31T02:55:53.652Z,8.92
2022-12-31T02:59:17.252Z,12.42
2022-12-31T03:02:09.042Z,11.97
2022-12-31T03:04:38.363Z,10.52
2022-12-31T03:07:26.612Z,9.67
2022-12-31T03:09:55.211Z,9.00
2022-12-31T03:12:46.183Z,8.54
2022-12-31T03:15:28.233Z,8.13
2022-12-31T03:17:56.107Z,8.74
2022-12-31T03:20:54.401Z,11.62
2022-12-31T03:23:31.976Z,12.93
2022-12-31T03:26:00.664Z,11.56
2022-12-31T03:28:31.015Z,10.39
2022-12-31T03:31:01.842Z,9.57
2022-12-31T03:33:36.542Z,8.98
2022-12-31T03:36:07.682Z,8.52
2022-12-31T03:38:36.450Z,8.77
2022-12-31T03:41:04.583Z,11.57
2022-12-31T03:43:32.620Z,12.93
2022-12-31T03:46:01.810Z,11.79
2022-12-31T03:48:29.980Z,10.58
2022-12-31T03:50:57.931Z,9.73
2022-12-31T03:53:26.008Z,9.15
2022-12-31T03:55:54.723Z,8.68
2022-12-31T03:58:22.996Z,8.77
2022-12-31T04:00:51.376Z,11.39
2022-12-31T04:03:19.490Z,13.06
2022-12-31T04:05:53.856Z,12.01
2022-12-31T04:08:22.362Z,10.75
2022-12-31T04:10:50.625Z,9.90
2022-12-31T04:13:18.623Z,9.29
2022-12-31T04:15:50.121Z,8.82
2022-12-31T04:18:18.088Z,9.14
2022-12-31T04:20:46.077Z,11.92
2022-12-31T04:23:14.093Z,13.16
2022-12-31T04:25:42.043Z,11.98
2022-12-31T04:28:10.987Z,10.79
2022-12-31T04:30:40.100Z,9.96
2022-12-31T04:33:08.137Z,9.38
2022-12-31T04:35:36.293Z,8.94
2022-12-31T04:38:04.428Z,9.17
2022-12-31T04:40:32.446Z,11.92
2022-12-31T04:43:00.487Z,13.33
2022-12-31T04:45:28.494Z,12.24
2022-12-31T04:47:56.481Z,11.02
2022-12-31T04:50:24.505Z,10.17
2022-12-31T04:52:52.499Z,9.59
2022-12-31T04:55:20.471Z,9.16
2022-12-31T04:57:48.536Z,8.79
2022-12-31T05:00:16.656Z,9.20
2022-12-31T05:02:44.707Z,12.07
2022-12-31T05:05:12.929Z,13.52
2022-12-31T05:07:40.935Z,12.40
2022-12-31T05:10:09.056Z,11.17
2022-12-31T05:12:37.025Z,10.31
2022-12-31T05:15:06.534Z,9.70
2022-12-31T05:17:34.574Z,9.25
2022-12-31T05:20:02.580Z,8.89
2022-12-31T05:22:30.707Z,9.29
2022-12-31T05:25:00.313Z,12.12
2022-12-31T05:27:31.416Z,13.77
2022-12-31T05:30:00.237Z,12.73
2022-12-31T05:32:28.612Z,11.47
2022-12-31T05:34:58.235Z,10.58
2022-12-31T05:37:29.858Z,9.96
2022-12-31T05:39:58.092Z,9.50
2022-12-31T05:42:27.001Z,9.13
2022-12-31T05:44:55.022Z,9.50
2022-12-31T05:47:23.545Z,12.26
2022-12-31T05:49:51.578Z,13.70
2022-12-31T05:52:20.184Z,12.62
2022-12-31T05:54:48.180Z,11.43
2022-12-31T05:57:16.292Z,10.59
2022-12-31T05:59:44.327Z,10.00
2022-12-31T06:02:12.379Z,9.56
2022-12-31T06:04:40.444Z,9.79
2022-12-31T06:07:08.808Z,12.45
2022-12-31T06:09:36.855Z,13.94
2022-12-31T06:12:06.765Z,12.90
2022-12-31T06:14:35.346Z,11.68
2022-12-31T06:17:03.675Z,10.82
2022-12-31T06:19:31.675Z,10.23
2022-12-31T06:21:59.742Z,9.80
2022-12-31T06:24:27.769Z,9.44
2022-12-31T06:26:55.762Z,9.85
2022-12-31T06:29:23.763Z,12.63
2022-12-31T06:31:51.764Z,13.84
2022-12-31T06:34:19.920Z,12.71
2022-12-31T06:36:48.076Z,11.56
2022-12-31T06:39:16.088Z,10.76
2022-12-31T06:41:44.111Z,10.21
2022-12-31T06:44:12.301Z,9.80
2022-12-31T06:46:40.493Z,9.47
2022-12-31T06:49:08.514Z,9.80
2022-12-31T06:51:36.712Z,12.54
2022-12-31T06:54:04.673Z,14.18
2022-12-31T06:56:34.669Z,13.17
2022-12-31T06:59:04.004Z,11.94
2022-12-31T07:01:58.050Z,11.11
2022-12-31T07:04:38.729Z,10.42
2022-12-31T07:07:17.208Z,9.98
2022-12-31T07:10:00.233Z,9.63
2022-12-31T07:13:01.550Z,10.06
2022-12-31T07:16:11.968Z,13.46
2022-12-31T07:19:11.284Z,13.73
2022-12-31T07:21:41.869Z,12.22
2022-12-31T07:24:11.399Z,11.33
2022-12-31T07:27:19.482Z,10.74
2022-12-31T07:30:02.092Z,10.18
2022-12-31T07:33:03.989Z,9.81
2022-12-31T07:35:41.128Z,9.46
2022-12-31T07:38:20.954Z,10.08
2022-12-31T07:40:59.159Z,13.31
2022-12-31T07:43:38.056Z,14.14
2022-12-31T07:46:40.232Z,12.81
2022-12-31T07:49:11.432Z,11.57
2022-12-31T07:51:40.260Z,10.87
2022-12-31T07:54:13.614Z,10.41
2022-12-31T07:56:44.192Z,10.05
2022-12-31T07:59:30.724Z,10.45
2022-12-31T08:02:13.865Z,13.64
2022-12-31T08:05:02.222Z,14.39
2022-12-31T08:07:47.505Z,12.98
2022-12-31T08:10:28.064Z,11.90
2022-12-31T08:13:01.262Z,11.21
2022-12-31T08:15:30.675Z,10.74
2022-12-31T08:17:59.303Z,10.39
2022-12-31T08:20:29.696Z,10.10
2022-12-31T08:23:24.679Z,10.56
2022-12-31T08:25:55.422Z,13.91
2022-12-31T08:28:29.586Z,14.92
2022-12-31T08:31:16.535Z,13.65
2022-12-31T08:34:06.188Z,12.43
2022-12-31T08:36:49.666Z,11.62
2022-12-31T08:39:23.436Z,11.09
2022-12-31T08:41:57.672Z,10.71
2022-12-31T08:44:46.039Z,10.40
2022-12-31T08:47:38.593Z,11.34
2022-12-31T08:50:13.183Z,14.51
2022-12-31T08:52:41.491Z,14.50
2022-12-31T08:55:16.719Z,13.28
2022-12-31T08:58:05.074Z,12.31
2022-12-31T09:00:34.600Z,11.61
2022-12-31T09:03:32.071Z,11.17
2022-12-31T09:06:08.969Z,10.78
2022-12-31T09:08:49.354Z,10.49
2022-12-31T09:11:30.010Z,11.10
2022-12-31T09:14:36.847Z,14.23
2022-12-31T09:17:31.694Z,14.72
2022-12-31T09:19:59.986Z,13.28
2022-12-31T09:22:28.759Z,12.41
2022-12-31T09:24:57.134Z,11.81
2022-12-31T09:27:48.785Z,11.39
2022-12-31T09:30:18.852Z,11.03
2022-12-31T09:33:12.750Z,10.84
2022-12-31T09:35:56.924Z,13.02
2022-12-31T09:38:55.173Z,15.29
2022-12-31T09:41:47.716Z,14.30
2022-12-31T09:44:28.798Z,13.13
2022-12-31T09:47:28.914Z,12.42
2022-12-31T09:50:21.310Z,11.88
2022-12-31T09:52:55.140Z,11.54
2022-12-31T09:55:42.026Z,11.29
2022-12-31T09:58:23.762Z,11.98
2022-12-31T10:01:21.092Z,15.05
2022-12-31T10:04:13.873Z,15.73
2022-12-31T10:06:41.826Z,14.31
2022-12-31T10:09:25.163Z,13.33
2022-12-31T10:12:02.300Z,12.66
2022-12-31T10:14:52.071Z,12.22
2022-12-31T10:17:44.428Z,13.15
2022-12-31T10:20:45.084Z,15.97
2022-12-31T10:23:21.081Z,15.40
2022-12-31T10:26:12.068Z,14.27
2022-12-31T10:28:56.117Z,13.35
2022-12-31T10:31:36.359Z,12.79
2022-12-31T10:34:41.024Z,12.39
2022-12-31T10:37:21.500Z,12.02
2022-12-31T10:40:17.774Z,11.77
2022-12-31T10:43:36.753Z,11.55
2022-12-31T10:46:35.697Z,12.95
2022-12-31T10:49:34.701Z,16.09
2022-12-31T10:52:17.829Z,15.62
2022-12-31T10:55:16.753Z,14.44
2022-12-31T10:58:04.509Z,13.56
2022-12-31T11:00:57.914Z,13.06
2022-12-31T11:04:04.924Z,12.73
2022-12-31T11:07:14.292Z,12.97
2022-12-31T11:09:57.223Z,16.30
2022-12-31T11:12:47.468Z,16.77
2022-12-31T11:15:21.703Z,15.43
2022-12-31T11:18:11.391Z,14.49
2022-12-31T11:20:58.411Z,13.80
2022-12-31T11:23:37.226Z,13.35
2022-12-31T11:26:46.917Z,13.01
2022-12-31T11:29:54.053Z,12.67
2022-12-31T11:32:22.030Z,13.87
2022-12-31T11:35:15.925Z,16.39
2022-12-31T11:37:58.334Z,15.90
2022-12-31T11:40:42.170Z,14.77
2022-12-31T11:43:23.764Z,13.96
2022-12-31T11:46:13.293Z,13.42
2022-12-31T11:49:19.241Z,13.00
2022-12-31T11:52:08.113Z,12.67
2022-12-31T11:54:53.945Z,13.48
2022-12-31T11:57:27.541Z,16.49
2022-12-31T12:00:22.985Z,16.78
2022-12-31T12:03:00.867Z,15.41
2022-12-31T12:05:30.164Z,14.47
2022-12-31T12:07:58.438Z,13.89
2022-12-31T12:10:36.547Z,13.48
2022-12-31T12:13:34.741Z,13.15
2022-12-31T12:16:07.560Z,12.84
2022-12-31T12:18:45.984Z,13.49
2022-12-31T12:21:25.440Z,16.30
2022-12-31T12:24:26.381Z,16.95
2022-12-31T12:26:57.916Z,15.61
2022-12-31T12:29:35.871Z,14.72
2022-12-31T12:32:16.327Z,14.08
2022-12-31T12:34:49.641Z,13.63
2022-12-31T12:37:27.189Z,13.30
2022-12-31T12:40:01.099Z,13.04
2022-12-31T12:42:30.044Z,12.83
2022-12-31T12:45:03.519Z,13.37
2022-12-31T12:47:32.179Z,16.19
2022-12-31T12:50:01.092Z,17.33
2022-12-31T12:52:59.208Z,16.32
2022-12-31T12:55:41.063Z,15.09
2022-12-31T12:58:44.650Z,14.41
2022-12-31T13:01:51.539Z,13.88
2022-12-31T13:04:46.643Z,13.50
2022-12-31T13:07:33.458Z,13.22
2022-12-31T13:10:07.472Z,12.98
2022-12-31T13:16:11.331Z,16.99
2022-12-31T13:18:53.723Z,16.94
2022-12-31T13:21:21.775Z,15.68
2022-12-31T13:24:14.119Z,14.83
2022-12-31T13:26:50.689Z,14.18
2022-12-31T13:29:23.017Z,13.75
2022-12-31T13:31:52.985Z,13.41
2022-12-31T13:34:42.608Z,13.15
2022-12-31T13:37:41.444Z,13.93
2022-12-31T13:40:25.037Z,17.02
2022-12-31T13:43:13.320Z,17.03
2022-12-31T13:45:44.771Z,15.74
2022-12-31T13:48:30.515Z,14.88
2022-12-31T13:51:06.094Z,14.24
2022-12-31T13:53:43.888Z,13.81
2022-12-31T13:56:19.948Z,13.47
2022-12-31T13:59:16.921Z,13.18
2022-12-31T14:01:54.040Z,12.90
2022-12-31T14:04:33.618Z,13.44
2022-12-31T14:07:13.910Z,16.32
2022-12-31T14:09:42.677Z,17.01
2022-12-31T14:12:13.630Z,15.87
2022-12-31T14:15:18.029Z,14.89
2022-12-31T14:18:09.987Z,14.08
2022-12-31T14:20:48.395Z,13.58
2022-12-31T14:23:25.990Z,13.21
2022-12-31T14:26:28.677Z,12.90
2022-12-31T14:29:08.783Z,12.59
2022-12-31T14:31:49.209Z,13.17
2022-12-31T14:34:39.377Z,16.11
2022-12-31T14:37:38.731Z,16.86
2022-12-31T14:40:12.826Z,15.43
2022-12-31T14:43:02.563Z,14.46
2022-12-31T14:45:56.068Z,13.73
2022-12-31T14:49:12.445Z,13.16
2022-12-31T14:51:40.518Z,12.72
2022-12-31T14:54:29.429Z,13.69
2022-12-31T14:56:57.533Z,16.50
2022-12-31T14:59:33.335Z,16.63
2022-12-31T15:02:34.988Z,15.32
2022-12-31T15:05:12.579Z,14.22
2022-12-31T15:07:43.449Z,13.60
2022-12-31T15:10:33.317Z,13.16
2022-12-31T15:13:20.972Z,12.79
2022-12-31T15:16:15.284Z,13.81
2022-12-31T15:19:05.119Z,16.78
2022-12-31T15:21:45.085Z,16.73
2022-12-31T15:24:31.728Z,15.43
2022-12-31T15:27:03.171Z,14.44
2022-12-31T15:29:34.173Z,13.84
2022-12-31T15:32:08.102Z,13.37
2022-12-31T15:34:36.978Z,13.04
2022-12-31T15:37:27.221Z,12.75
2022-12-31T15:40:25.469Z,13.76
2022-12-31T15:43:10.013Z,16.77
2022-12-31T15:45:39.728Z,16.76
2022-12-31T15:48:18.327Z,15.54
2022-12-31T15:50:47.669Z,14.55
2022-12-31T15:53:40.438Z,13.93
2022-12-31T15:56:18.989Z,13.41
2022-12-31T15:58:50.145Z,13.04
2022-12-31T16:01:30.793Z,13.44
2022-12-31T16:04:05.781Z,16.32
2022-12-31T16:06:38.601Z,17.50
2022-12-31T16:09:10.721Z,16.37
2022-12-31T16:11:42.850Z,15.17
2022-12-31T16:14:23.093Z,14.36
2022-12-31T16:16:55.544Z,13.76
2022-12-31T16:19:32.452Z,13.33
2022-12-31T16:22:13.576Z,13.43
2022-12-31T16:25:19.373Z,16.05
2022-12-31T16:27:31.691Z,17.28
2022-12-31T16:30:18.753Z,16.16
2022-12-31T16:32:50.091Z,14.97
2022-12-31T16:35:31.265Z,14.22
2022-12-31T16:38:08.855Z,13.67
2022-12-31T16:40:36.974Z,13.27
2022-12-31T16:43:18.524Z,13.66
2022-12-31T16:45:46.789Z,16.42
2022-12-31T16:48:17.871Z,17.54
2022-12-31T16:50:51.022Z,16.42
2022-12-31T16:53:22.554Z,15.23
2022-12-31T16:55:56.896Z,14.38
2022-12-31T16:58:37.862Z,13.78
2022-12-31T17:01:23.456Z,14.57
2022-12-31T17:03:59.630Z,17.24
2022-12-31T17:06:33.614Z,17.35
2022-12-31T17:09:14.018Z,15.98
2022-12-31T17:11:43.518Z,14.94
2022-12-31T17:14:14.125Z,14.29
2022-12-31T17:17:04.254Z,13.83
2022-12-31T17:19:35.290Z,14.36
2022-12-31T17:22:13.265Z,16.89
2022-12-31T17:24:41.762Z,17.58
2022-12-31T17:27:10.658Z,16.39
2022-12-31T17:29:38.680Z,15.34
2022-12-31T17:32:30.082Z,14.60
2022-12-31T17:34:58.190Z,14.03
2022-12-31T17:37:30.886Z,15.31
2022-12-31T17:40:32.273Z,17.39
2022-12-31T17:42:49.849Z,16.70
2022-12-31T17:45:22.482Z,15.66
2022-12-31T17:47:53.878Z,14.85
2022-12-31T17:50:24.888Z,14.25
2022-12-31T17:53:09.711Z,14.56
2022-12-31T17:55:38.039Z,17.15
2022-12-31T17:58:06.931Z,17.79
2022-12-31T18:00:37.073Z,16.68
2022-12-31T18:03:05.115Z,15.60
2022-12-31T18:05:33.227Z,14.84
2022-12-31T18:08:01.265Z,14.28
2022-12-31T18:10:33.135Z,13.85
2022-12-31T18:13:02.494Z,13.50
2022-12-31T18:15:31.305Z,14.04
2022-12-31T18:17:59.480Z,16.77
2022-12-31T18:20:27.902Z,17.60
2022-12-31T18:22:56.069Z,16.51
2022-12-31T18:25:24.424Z,15.48
2022-12-31T18:27:52.898Z,14.73
2022-12-31T18:30:20.908Z,14.21
2022-12-31T18:32:49.072Z,13.80
2022-12-31T18:35:57.587Z,13.98
2022-12-31T18:38:14.257Z,16.81
2022-12-31T18:40:46.807Z,17.59
2022-12-31T18:43:17.600Z,16.43
2022-12-31T18:45:47.646Z,15.39
2022-12-31T18:48:16.717Z,14.67
2022-12-31T18:50:45.788Z,14.15
2022-12-31T18:53:20.342Z,13.74
2022-12-31T18:55:54.274Z,14.28
2022-12-31T18:58:22.722Z,16.97
2022-12-31T19:00:51.748Z,17.45
2022-12-31T19:03:23.342Z,16.27
2022-12-31T19:05:52.155Z,15.27
2022-12-31T19:08:22.392Z,14.55
2022-12-31T19:10:52.278Z,14.03
2022-12-31T19:13:21.165Z,13.64
2022-12-31T19:15:55.692Z,14.02
2022-12-31T19:18:23.799Z,16.62
2022-12-31T19:20:52.483Z,17.73
2022-12-31T19:23:22.518Z,16.68
2022-12-31T19:25:50.616Z,15.54
2022-12-31T19:28:20.288Z,14.75
2022-12-31T19:30:48.611Z,14.18
2022-12-31T19:33:17.255Z,13.76
2022-12-31T19:35:46.304Z,14.07
2022-12-31T19:38:23.407Z,16.54
2022-12-31T19:40:52.898Z,17.41
2022-12-31T19:43:23.134Z,16.30
2022-12-31T19:45:52.122Z,15.30
2022-12-31T19:48:28.576Z,14.59
2022-12-31T19:51:00.373Z,14.04
2022-12-31T19:53:28.992Z,13.64
2022-12-31T19:55:57.019Z,13.32
2022-12-31T19:58:26.791Z,13.71
2022-12-31T20:01:02.480Z,16.18
2022-12-31T20:03:33.370Z,17.49
2022-12-31T20:06:02.889Z,16.43
2022-12-31T20:08:31.008Z,15.35
2022-12-31T20:10:59.123Z,14.59
2022-12-31T20:13:27.636Z,14.05
2022-12-31T20:15:55.661Z,13.63
2022-12-31T20:18:25.013Z,14.01
2022-12-31T20:20:56.018Z,16.56
2022-12-31T20:23:24.310Z,17.30
2022-12-31T20:26:00.269Z,16.21
2022-12-31T20:28:28.837Z,15.13
2022-12-31T20:30:56.917Z,14.40
2022-12-31T20:33:25.001Z,13.89
2022-12-31T20:35:53.067Z,13.49
2022-12-31T20:38:21.192Z,13.80
2022-12-31T20:40:49.624Z,16.30
2022-12-31T20:43:17.659Z,17.28
2022-12-31T20:45:45.770Z,16.18
2022-12-31T20:48:13.811Z,15.12
2022-12-31T20:50:43.157Z,14.38
2022-12-31T20:53:11.161Z,13.82
2022-12-31T20:55:39.187Z,13.38
2022-12-31T20:58:07.289Z,13.04
2022-12-31T21:00:35.279Z,13.52
2022-12-31T21:03:14.195Z,16.04
2022-12-31T21:05:51.857Z,17.01
2022-12-31T21:08:20.958Z,15.81
2022-12-31T21:10:51.089Z,14.81
2022-12-31T21:13:23.221Z,14.09
2022-12-31T21:15:55.005Z,13.59
2022-12-31T21:18:24.072Z,13.19
2022-12-31T21:20:53.939Z,12.90
2022-12-31T21:23:22.990Z,13.24
2022-12-31T21:25:51.021Z,15.78
2022-12-31T21:28:19.217Z,17.22
2022-12-31T21:30:47.320Z,16.31
2022-12-31T21:33:15.367Z,15.19
2022-12-31T21:35:48.670Z,14.40
2022-12-31T21:38:21.508Z,13.83
2022-12-31T21:40:53.090Z,13.43
2022-12-31T21:43:21.146Z,13.09
2022-12-31T21:46:00.722Z,12.82
2022-12-31T21:48:28.865Z,13.31
2022-12-31T21:51:07.993Z,15.92
2022-12-31T21:53:37.385Z,16.99
2022-12-31T21:56:09.586Z,15.91
2022-12-31T21:58:39.429Z,14.91
2022-12-31T22:01:26.530Z,14.23
2022-12-31T22:03:54.699Z,13.69
2022-12-31T22:06:24.399Z,13.35
2022-12-31T22:08:55.296Z,13.05
2022-12-31T22:11:26.525Z,12.81
2022-12-31T22:13:55.524Z,13.22
2022-12-31T22:16:23.725Z,15.80
2022-12-31T22:18:55.055Z,17.11
2022-12-31T22:21:25.605Z,16.12
2022-12-31T22:23:56.554Z,15.06
2022-12-31T22:26:27.629Z,14.33
2022-12-31T22:28:59.866Z,13.82
2022-12-31T22:31:32.320Z,13.42
2022-12-31T22:34:00.413Z,13.09
2022-12-31T22:36:28.425Z,12.82
2022-12-31T22:38:58.557Z,13.16
2022-12-31T22:41:27.975Z,15.76
2022-12-31T22:44:05.821Z,16.99
2022-12-31T22:46:35.471Z,15.93
2022-12-31T22:49:04.861Z,14.91
2022-12-31T22:51:55.849Z,14.20
2022-12-31T22:54:21.527Z,13.64
2022-12-31T22:56:49.694Z,13.26
2022-12-31T22:59:17.763Z,12.96
2022-12-31T23:01:45.897Z,12.70
2022-12-31T23:04:14.027Z,13.06
2022-12-31T23:06:45.432Z,15.60
2022-12-31T23:09:34.542Z,16.83
2022-12-31T23:12:04.689Z,15.66
2022-12-31T23:14:52.275Z,14.68
2022-12-31T23:17:44.717Z,13.94
2022-12-31T23:20:37.549Z,13.43
2022-12-31T23:23:10.081Z,13.04
2022-12-31T23:25:47.982Z,12.77
2022-12-31T23:28:24.660Z,12.53
2022-12-31T23:30:53.214Z,13.00
2022-12-31T23:33:24.617Z,15.62
2022-12-31T23:36:06.641Z,16.79
2022-12-31T23:38:41.536Z,15.67
2022-12-31T23:41:14.668Z,14.63
2022-12-31T23:43:43.929Z,13.98
2022-12-31T23:46:12.848Z,13.54
2022-12-31T23:48:40.945Z,13.20
2022-12-31T23:51:09.306Z,12.91
2022-12-31T23:53:38.723Z,12.67
2022-12-31T23:56:13.904Z,12.45
2022-12-31T23:58:46.079Z,12.96
